Time;durP1;ratioP1;P1;durP2;ratioP2;P2;SDS_P1;SDS_P2;PMS_P1;PMS_P2;Temp;Humidity;BMP_temperature;BMP_pressure;BME280_temperature;BME280_humidity;BME280_pressure;Samples;Min_cycle;Max_cycle;Signal;HPM_P1;HPM_P2
2021/04/01 00:01:56;;;;;;;;;;;;;;;22.17;32.12;100204.22;4401526;32;20367;-59
2021/04/01 00:04:21;;;;;;;;;;;;;;;22.17;32.19;100196.25;4411064;32;19950;-58
2021/04/01 00:06:47;;;;;;;;;;;;;;;22.16;32.06;100202.44;4415408;32;19965;-57
2021/04/01 00:09:13;;;;;;;;;;;;;;;22.12;32.09;100195.34;4415311;32;20309;-55
2021/04/01 00:11:39;;;;;;;;;;;;;;;22.22;32.09;100190.06;4414885;32;19950;-57
2021/04/01 00:14:05;;;;;;;;;;;;;;;22.15;32.09;100183.88;4416134;32;20347;-55
2021/04/01 00:16:31;;;;;;;;;;;;;;;22.13;32.19;100191.81;4415626;32;19954;-58
2021/04/01 00:18:57;;;;;;;;;;;;;;;22.19;31.99;100190.94;4416144;32;19935;-59
2021/04/01 00:21:23;;;;;;;;;;;;;;;22.16;32.04;100189.19;4416418;32;20080;-57
2021/04/01 00:23:48;;;;;;;;;;;;;;;22.19;31.98;100185.63;4412043;32;19955;-59
2021/04/01 00:26:14;;;;;;;;;;;;;;;22.20;31.93;100176.78;4401241;32;19946;-58
2021/04/01 00:28:40;;;;;;;;;;;;;;;22.11;32.08;100177.66;4404649;32;19949;-58
2021/04/01 00:31:06;;;;;;;;;;;;;;;22.11;32.12;100175.00;4416325;32;19962;-58
2021/04/01 00:33:32;;;;;;;;;;;;;;;22.09;32.12;100182.09;4415884;32;19985;-58
2021/04/01 00:35:58;;;;;;;;;;;;;;;22.07;32.12;100175.91;4417443;32;19990;-58
2021/04/01 00:38:24;;;;;;;;;;;;;;;22.05;32.23;100177.66;4417642;32;19970;-58
2021/04/01 00:40:50;;;;;;;;;;;;;;;22.10;32.05;100175.91;4418636;32;20359;-56
2021/04/01 00:43:16;;;;;;;;;;;;;;;22.06;32.22;100179.44;4419409;32;19962;-58
2021/04/01 00:45:42;;;;;;;;;;;;;;;22.06;32.19;100174.12;4419463;32;19972;-58
2021/04/01 00:48:08;;;;;;;;;;;;;;;22.06;32.09;100179.44;4418692;32;20529;-57
2021/04/01 00:50:34;;;;;;;;;;;;;;;22.07;32.04;100173.25;4419518;32;19991;-58
2021/04/01 00:52:59;;;;;;;;;;;;;;;22.07;32.13;100175.91;4419029;32;19946;-59
2021/04/01 00:55:25;;;;;;;;;;;;;;;22.04;32.14;100174.12;4405952;32;20332;-58
2021/04/01 00:57:51;;;;;;;;;;;;;;;22.04;32.13;100175.91;4403888;32;20035;-58
2021/04/01 01:00:18;;;;;;;;;;;;;;;22.06;32.03;100173.22;4413769;32;19968;-59
2021/04/01 01:02:44;;;;;;;;;;;;;;;22.04;32.13;100171.47;4419738;32;19950;-57
2021/04/01 01:05:12;;;;;;;;;;;;;;;22.03;32.03;100168.78;4418971;32;20353;-58
2021/04/01 01:07:38;;;;;;;;;;;;;;;22.01;32.08;100155.56;4418719;32;19958;-56
2021/04/01 01:10:04;;;;;;;;;;;;;;;22.04;32.02;100162.63;4417247;32;20298;-58
2021/04/01 01:12:30;;;;;;;;;;;;;;;22.02;32.04;100161.72;4418644;32;19950;-59
2021/04/01 01:14:56;;;;;;;;;;;;;;;22.02;32.18;100161.72;4418464;32;20347;-58
2021/04/01 01:17:22;;;;;;;;;;;;;;;22.00;32.01;100152.87;4417859;32;20009;-58
2021/04/01 01:19:48;;;;;;;;;;;;;;;22.02;31.99;100156.41;4418171;32;19955;-58
2021/04/01 01:22:13;;;;;;;;;;;;;;;22.01;32.09;100157.31;4416824;32;19958;-57
2021/04/01 01:24:39;;;;;;;;;;;;;;;22.03;32.12;100155.53;4414936;32;19966;-55
2021/04/01 01:27:05;;;;;;;;;;;;;;;22.01;32.05;100154.66;4402174;32;19949;-58
2021/04/01 01:29:31;;;;;;;;;;;;;;;22.02;31.93;100148.47;4405842;32;19987;-58
2021/04/01 01:31:57;;;;;;;;;;;;;;;22.00;31.98;100136.97;4418226;32;19965;-58
2021/04/01 01:34:23;;;;;;;;;;;;;;;22.01;32.08;100149.34;4417793;32;20049;-56
2021/04/01 01:36:49;;;;;;;;;;;;;;;21.97;32.09;100152.87;4418436;32;20365;-57
2021/04/01 01:39:15;;;;;;;;;;;;;;;21.99;31.87;100151.12;4417955;32;19978;-58
2021/04/01 01:41:40;;;;;;;;;;;;;;;21.99;32.02;100151.12;4417321;32;19954;-57
2021/04/01 01:44:06;;;;;;;;;;;;;;;21.98;31.91;100144.94;4416805;32;19965;-59
2021/04/01 01:46:32;;;;;;;;;;;;;;;21.96;32.12;100143.16;4405470;32;19968;-58
2021/04/01 01:48:58;;;;;;;;;;;;;;;21.97;32.08;100142.28;4418460;32;19950;-59
2021/04/01 01:51:24;;;;;;;;;;;;;;;21.96;32.10;100140.53;4417989;32;19976;-58
2021/04/01 01:53:50;;;;;;;;;;;;;;;21.92;32.12;100144.06;4417727;32;20321;-58
2021/04/01 01:56:16;;;;;;;;;;;;;;;21.88;32.24;100137.84;4415892;32;19950;-57
2021/04/01 01:58:42;;;;;;;;;;;;;;;21.87;32.16;100142.25;4418772;32;19996;-58
2021/04/01 02:01:07;;;;;;;;;;;;;;;21.86;32.17;100140.50;4417993;32;19976;-58
2021/04/01 02:03:33;;;;;;;;;;;;;;;21.87;32.15;100141.38;4418883;32;19994;-58
2021/04/01 02:05:59;;;;;;;;;;;;;;;21.84;32.04;100139.59;4417609;32;19977;-58
2021/04/01 02:08:25;;;;;;;;;;;;;;;21.83;32.15;100139.59;4417773;32;19962;-57
2021/04/01 02:10:51;;;;;;;;;;;;;;;21.81;32.21;100147.56;4410436;32;20318;-58
2021/04/01 02:13:17;;;;;;;;;;;;;;;21.77;32.23;100148.41;4401177;32;19997;-57
2021/04/01 02:15:43;;;;;;;;;;;;;;;21.77;32.27;100148.41;4407982;32;19954;-58
2021/04/01 02:18:09;;;;;;;;;;;;;;;21.72;32.25;100150.19;4417407;32;19938;-58
2021/04/01 02:20:41;;;;;;;;;;;;;;;21.73;32.28;100154.59;4418509;32;19989;-58
2021/04/01 02:23:07;;;;;;;;;;;;;;;21.72;32.28;100158.13;4417642;32;19954;-58
2021/04/01 02:25:33;;;;;;;;;;;;;;;21.71;32.15;100164.31;4417714;32;19981;-55
2021/04/01 02:27:59;;;;;;;;;;;;;;;21.74;32.15;100154.59;4418134;32;19950;-58
2021/04/01 02:30:25;;;;;;;;;;;;;;;21.75;32.21;100163.44;4417173;32;19969;-57
2021/04/01 02:32:51;;;;;;;;;;;;;;;21.72;32.12;100150.19;4418482;32;19951;-58
2021/04/01 02:35:17;;;;;;;;;;;;;;;21.70;32.17;100157.25;4417591;32;19954;-56
2021/04/01 02:37:43;;;;;;;;;;;;;;;21.66;32.16;100155.41;4417462;32;19947;-58
2021/04/01 02:40:08;;;;;;;;;;;;;;;21.70;32.14;100149.28;4416259;32;19958;-59
2021/04/01 02:42:34;;;;;;;;;;;;;;;21.66;32.31;100155.41;4402622;32;19950;-59
2021/04/01 02:45:00;;;;;;;;;;;;;;;21.67;32.12;100155.47;4403137;32;19946;-58
2021/04/01 02:47:26;;;;;;;;;;;;;;;21.65;32.12;100154.53;4413725;32;20010;-59
2021/04/01 02:49:52;;;;;;;;;;;;;;;21.63;32.13;100151.00;4417757;32;20353;-58
2021/04/01 02:52:18;;;;;;;;;;;;;;;21.61;32.08;100150.97;4417575;32;20013;-57
2021/04/01 02:54:44;;;;;;;;;;;;;;;21.61;32.19;100150.97;4417752;32;19973;-58
2021/04/01 02:57:10;;;;;;;;;;;;;;;21.66;32.06;100143.09;4415965;32;19938;-57
2021/04/01 02:59:36;;;;;;;;;;;;;;;21.63;32.14;100135.97;4416614;32;19958;-58
2021/04/01 03:02:01;;;;;;;;;;;;;;;21.58;32.13;100128.87;4417715;32;19989;-58
2021/04/01 03:04:27;;;;;;;;;;;;;;;21.65;31.90;100129.78;4416251;32;20553;-59
2021/04/01 03:06:53;;;;;;;;;;;;;;;21.65;32.12;100124.50;4416854;32;20037;-58
2021/04/01 03:09:19;;;;;;;;;;;;;;;21.68;31.99;100133.38;4416788;32;19969;-57
2021/04/01 03:11:45;;;;;;;;;;;;;;;21.65;31.96;100135.09;4410531;32;19999;-58
2021/04/01 03:14:11;;;;;;;;;;;;;;;21.65;32.00;100129.78;4402359;32;19985;-59
2021/04/01 03:16:37;;;;;;;;;;;;;;;21.70;31.92;100144.00;4406275;32;19949;-58
2021/04/01 03:19:03;;;;;;;;;;;;;;;21.65;31.93;100132.44;4417199;32;19950;-51
2021/04/01 03:21:29;;;;;;;;;;;;;;;21.66;31.87;100128.91;4417383;32;20386;-58
2021/04/01 03:23:54;;;;;;;;;;;;;;;21.72;31.79;100121.03;4417524;32;19991;-58
2021/04/01 03:26:20;;;;;;;;;;;;;;;21.70;31.54;100134.25;4416117;32;19969;-54
2021/04/01 03:28:46;;;;;;;;;;;;;;;21.71;31.84;100129.84;4417287;32;19982;-58
2021/04/01 03:31:12;;;;;;;;;;;;;;;21.72;31.70;100134.28;4416827;32;20009;-59
2021/04/01 03:33:38;;;;;;;;;;;;;;;21.76;31.64;100129.00;4417340;32;19978;-58
2021/04/01 03:36:05;;;;;;;;;;;;;;;21.78;31.75;100130.75;4416219;32;19974;-55
2021/04/01 03:38:31;;;;;;;;;;;;;;;21.76;31.44;100125.44;4417294;32;19960;-56
2021/04/01 03:40:56;;;;;;;;;;;;;;;21.68;31.61;100129.84;4416519;32;20244;-57
2021/04/01 03:43:25;;;;;;;;;;;;;;;21.76;31.42;100133.38;4416488;32;20025;-57
2021/04/01 03:45:51;;;;;;;;;;;;;;;21.79;31.47;100136.03;4417556;32;19962;-58
2021/04/01 03:48:17;;;;;;;;;;;;;;;21.78;31.31;100136.94;4416205;32;20384;-58
2021/04/01 03:50:43;;;;;;;;;;;;;;;21.77;31.48;100135.16;4417235;32;19950;-58
2021/04/01 03:53:09;;;;;;;;;;;;;;;21.76;31.56;100141.34;4416967;32;19973;-58
2021/04/01 03:55:42;;;;;;;;;;;;;;;21.72;31.49;100139.56;4416413;32;19950;-57
2021/04/01 04:00:36;;;;;;;;;;;;;;;21.70;31.62;100142.22;4416762;32;19954;-59
2021/04/01 04:03:11;;;;;;;;;;;;;;;21.71;31.51;100135.16;4417410;32;20753;-53
2021/04/01 04:05:49;;;;;;;;;;;;;;;21.71;31.50;100143.09;4417277;32;20403;-59
2021/04/01 04:08:41;;;;;;;;;;;;;;;21.68;31.56;100148.41;4416330;32;20525;-58
2021/04/01 04:16:01;;;;;;;;;;;;;;;21.66;31.56;100155.41;4404919;32;19998;-56
2021/04/01 04:18:27;;;;;;;;;;;;;;;21.60;31.67;100154.53;4414293;32;20279;-59
2021/04/01 04:20:53;;;;;;;;;;;;;;;21.57;31.75;100154.50;4419158;32;19957;-57
2021/04/01 04:23:20;;;;;;;;;;;;;;;21.61;31.57;100152.78;4410844;32;19968;-58
2021/04/01 04:25:46;;;;;;;;;;;;;;;21.58;31.71;100150.97;4404403;32;20001;-58
2021/04/01 04:28:19;;;;;;;;;;;;;;;21.60;31.62;100165.13;4410981;32;20004;-58
2021/04/01 04:30:45;;;;;;;;;;;;;;;21.57;31.65;100154.50;4419700;32;20073;-57
2021/04/01 04:33:11;;;;;;;;;;;;;;;21.54;31.79;100151.81;4419855;32;19970;-59
2021/04/01 04:35:37;;;;;;;;;;;;;;;21.54;31.72;100154.47;4419367;32;19991;-57
2021/04/01 04:38:03;;;;;;;;;;;;;;;21.52;31.76;100144.78;4419958;32;19951;-58
2021/04/01 04:40:29;;;;;;;;;;;;;;;21.52;31.81;100140.34;4418663;32;19997;-58
2021/04/01 04:42:55;;;;;;;;;;;;;;;21.49;31.84;100150.94;4418924;32;19957;-56
2021/04/01 04:45:21;;;;;;;;;;;;;;;21.53;31.87;100152.72;4419441;32;19954;-57
2021/04/01 04:47:46;;;;;;;;;;;;;;;21.53;31.73;100152.72;4417929;32;19938;-58
2021/04/01 04:50:12;;;;;;;;;;;;;;;21.48;31.81;100147.44;4418257;32;19950;-57
2021/04/01 04:52:39;;;;;;;;;;;;;;;21.46;31.97;100150.94;4419143;32;19950;-59
2021/04/01 04:55:08;;;;;;;;;;;;;;;21.51;31.75;100159.78;4418765;32;20820;-56
2021/04/01 04:57:39;;;;;;;;;;;;;;;21.48;31.84;100151.81;4417838;32;19942;-58
2021/04/01 05:05:25;;;;;;;;;;;;;;;21.48;31.96;100152.72;4419291;32;20290;-58
2021/04/01 05:07:51;;;;;;;;;;;;;;;21.45;31.57;100152.69;4418663;32;19962;-58
2021/04/01 05:10:17;;;;;;;;;;;;;;;21.43;31.90;100156.22;4418541;32;20437;-58
2021/04/01 05:12:45;;;;;;;;;;;;;;;21.46;31.85;100156.22;4419486;32;19966;-58
2021/04/01 05:15:11;;;;;;;;;;;;;;;21.38;31.94;100153.56;4418026;32;19958;-59
2021/04/01 05:17:37;;;;;;;;;;;;;;;21.46;31.81;100156.22;4417414;32;20439;-57
2021/04/01 05:20:06;;;;;;;;;;;;;;;21.49;31.74;100153.59;4417840;32;20335;-54
2021/04/01 05:25:33;;;;;;;;;;;;;;;21.44;31.92;100161.50;4384905;32;20011;-58
2021/04/01 05:28:06;;;;;;;;;;;;;;;21.45;31.81;100168.56;4405803;32;20356;-58
2021/04/01 05:30:32;;;;;;;;;;;;;;;21.44;31.79;100164.16;4403839;32;19946;-58
2021/04/01 05:32:58;;;;;;;;;;;;;;;21.43;31.75;100162.41;4413495;32;20327;-57
2021/04/01 05:35:24;;;;;;;;;;;;;;;21.45;31.71;100165.06;4419232;32;19950;-59
2021/04/01 05:37:51;;;;;;;;;;;;;;;21.42;31.95;100170.31;4418238;32;20299;-58
2021/04/01 05:40:17;;;;;;;;;;;;;;;21.41;31.88;100161.50;4416749;32;19962;-56
2021/04/01 05:42:47;;;;;;;;;;;;;;;21.43;31.91;100169.47;4419585;32;19945;-59
2021/04/01 05:45:18;;;;;;;;;;;;;;;21.52;31.73;100171.28;4417746;32;20283;-59
2021/04/01 05:47:48;;;;;;;;;;;;;;;21.45;31.88;100175.66;4418572;32;19961;-58
2021/04/01 05:59:01;;;;;;;;;;;;;;;21.45;31.79;100176.53;4415962;32;20358;-59
2021/04/01 06:03:41;;;;;;;;;;;;;;;21.53;31.62;100176.56;4408239;32;19953;-58
2021/04/01 06:06:10;;;;;;;;;;;;;;;21.47;31.49;100184.50;4416802;32;20448;-59
2021/04/01 06:08:36;;;;;;;;;;;;;;;21.40;31.77;100183.59;4419086;32;19971;-57
2021/04/01 06:11:02;;;;;;;;;;;;;;;21.48;31.60;100189.81;4418510;32;20000;-58
2021/04/01 06:13:28;;;;;;;;;;;;;;;21.50;31.77;100195.09;4418943;32;19982;-59
2021/04/01 06:15:53;;;;;;;;;;;;;;;21.45;31.69;100196.84;4417768;32;19975;-58
2021/04/01 06:18:20;;;;;;;;;;;;;;;21.45;31.85;100196.84;4417737;32;19943;-57
2021/04/01 06:20:46;;;;;;;;;;;;;;;21.50;31.79;100195.09;4418510;32;20358;-58
2021/04/01 06:23:14;;;;;;;;;;;;;;;21.46;31.78;100198.62;4418331;32;20030;-59
2021/04/01 06:25:40;;;;;;;;;;;;;;;21.45;31.86;100191.56;4417819;32;20364;-59
2021/04/01 06:28:07;;;;;;;;;;;;;;;21.45;31.83;100195.06;4418370;32;20622;-58
2021/04/01 06:30:37;;;;;;;;;;;;;;;21.48;31.77;100200.41;4417990;32;19942;-59
2021/04/01 06:33:05;;;;;;;;;;;;;;;21.50;31.79;100200.41;4418118;32;19974;-57
2021/04/01 06:35:33;;;;;;;;;;;;;;;21.49;31.75;100193.31;4416860;32;19968;-58
2021/04/01 06:40:31;;;;;;;;;;;;;;;21.50;31.66;100200.41;4413673;32;20310;-56
2021/04/01 06:42:57;;;;;;;;;;;;;;;21.48;31.90;100197.75;4417121;32;19950;-58
2021/04/01 06:45:23;;;;;;;;;;;;;;;21.50;31.74;100210.13;4416076;32;20021;-57
2021/04/01 06:47:49;;;;;;;;;;;;;;;21.50;31.79;100211.00;4416202;32;19966;-57
2021/04/01 06:50:20;;;;;;;;;;;;;;;21.57;31.76;100209.25;4416663;32;20654;-58
2021/04/01 06:52:46;;;;;;;;;;;;;;;21.59;31.69;100205.75;4416183;32;19989;-57
2021/04/01 06:55:22;;;;;;;;;;;;;;;21.59;31.82;100216.34;4411834;32;19994;-58
2021/04/01 06:57:57;;;;;;;;;;;;;;;21.60;31.65;100207.50;4400065;32;19942;-58
2021/04/01 07:03:02;;;;;;;;;;;;;;;21.62;31.69;100220.78;4401877;32;19962;-58
2021/04/01 07:05:39;;;;;;;;;;;;;;;21.63;31.74;100222.56;4406314;32;20041;-58
2021/04/01 07:08:07;;;;;;;;;;;;;;;21.67;31.64;100218.16;4415819;32;20416;-58
2021/04/01 07:10:41;;;;;;;;;;;;;;;21.66;31.77;100211.06;4416185;32;19954;-57
2021/04/01 07:13:07;;;;;;;;;;;;;;;21.67;31.67;100212.84;4416350;32;19992;-58
2021/04/01 07:15:35;;;;;;;;;;;;;;;21.65;31.64;100211.94;4415460;32;19999;-58
2021/04/01 07:18:11;;;;;;;;;;;;;;;21.66;31.61;100212.00;4416138;32;19950;-57
2021/04/01 07:23:30;;;;;;;;;;;;;;;21.68;31.67;100214.66;4416116;32;20002;-58
2021/04/01 07:30:51;;;;;;;;;;;;;;;21.70;31.56;100219.06;4415873;32;19976;-58
2021/04/01 07:45:46;;;;;;;;;;;;;;;21.72;31.76;100211.13;4415195;32;20363;-58
2021/04/01 07:48:06;;;;;;;;;;;;;;;21.71;31.92;100204.06;4414488;32;19962;-57
2021/04/01 07:50:31;;;;;;;;;;;;;;;21.67;31.93;100207.56;4413971;32;19977;-58
2021/04/01 07:53:00;;;;;;;;;;;;;;;21.67;31.93;100204.91;4415859;32;19950;-58
2021/04/01 07:55:43;;;;;;;;;;;;;;;21.66;32.12;100205.75;4413382;32;19962;-56
2021/04/01 08:01:15;;;;;;;;;;;;;;;21.60;32.30;100202.22;4386924;32;20023;-59
2021/04/01 08:06:07;;;;;;;;;;;;;;;21.58;32.40;100209.28;4415082;32;19985;-58
2021/04/01 08:08:33;;;;;;;;;;;;;;;21.59;32.38;100211.03;4416066;32;20025;-56
2021/04/01 08:10:59;;;;;;;;;;;;;;;21.58;32.50;100211.03;4415142;32;19997;-59
2021/04/01 08:13:27;;;;;;;;;;;;;;;21.54;32.60;100207.47;4415079;32;20004;-59
2021/04/01 08:15:53;;;;;;;;;;;;;;;21.56;32.54;100203.09;4415498;32;20352;-59
2021/04/01 08:18:29;;;;;;;;;;;;;;;21.54;32.65;100206.59;4414610;32;20027;-59
2021/04/01 08:20:56;;;;;;;;;;;;;;;21.53;32.70;100203.06;4411741;32;19978;-58
2021/04/01 08:23:28;;;;;;;;;;;;;;;21.51;32.72;100196.87;4413858;32;20026;-58
2021/04/01 08:33:40;;;;;;;;;;;;;;;21.52;32.86;100198.62;4387021;32;19955;-58
2021/04/01 08:36:05;;;;;;;;;;;;;;;21.54;32.88;100201.31;4415035;32;20010;-58
2021/04/01 08:38:31;;;;;;;;;;;;;;;21.53;32.97;100203.06;4400462;32;19950;-59
2021/04/01 08:40:57;;;;;;;;;;;;;;;21.55;32.98;100209.28;4408614;32;19961;-59
2021/04/01 08:43:34;;;;;;;;;;;;;;;21.56;33.00;100203.09;4414048;32;20033;-59
2021/04/01 08:46:00;;;;;;;;;;;;;;;21.45;33.81;100203.00;4415403;32;20056;-52
2021/04/01 08:48:26;;;;;;;;;;;;;;;21.19;34.36;100208.19;4413031;32;20327;-55
2021/04/01 08:50:51;;;;;;;;;;;;;;;21.24;34.47;100224.09;4414930;32;20013;-52
2021/04/01 08:53:17;;;;;;;;;;;;;;;21.36;34.08;100210.03;4414895;32;19953;-51
2021/04/01 08:55:43;;;;;;;;;;;;;;;21.33;34.19;100219.75;4414943;32;20330;-50
2021/04/01 08:58:09;;;;;;;;;;;;;;;21.48;33.76;100220.69;4414585;32;19951;-56
2021/04/01 09:00:35;;;;;;;;;;;;;;;21.53;33.72;100213.66;4417051;32;20374;-52
2021/04/01 09:03:02;;;;;;;;;;;;;;;21.51;33.86;100215.41;4416389;32;19950;-56
2021/04/01 09:05:27;;;;;;;;;;;;;;;21.63;33.63;100214.59;4416927;32;19989;-54
2021/04/01 09:07:54;;;;;;;;;;;;;;;21.55;33.68;100198.69;4416530;32;19972;-56
2021/04/01 09:10:22;;;;;;;;;;;;;;;21.50;33.78;100200.41;4416214;32;19962;-55
2021/04/01 09:12:55;;;;;;;;;;;;;;;21.45;34.01;100207.44;4418068;32;19997;-54
2021/04/01 09:15:25;;;;;;;;;;;;;;;21.62;33.75;100205.75;4417681;32;19980;-55
2021/04/01 09:17:51;;;;;;;;;;;;;;;21.72;33.47;100200.53;4418072;32;20013;-55
2021/04/01 09:20:20;;;;;;;;;;;;;;;21.47;34.02;100200.38;4417990;32;19954;-55
2021/04/01 09:22:46;;;;;;;;;;;;;;;21.55;33.83;100193.37;4419045;32;19974;-58
2021/04/01 09:25:11;;;;;;;;;;;;;;;21.60;33.69;100194.25;4417938;32;20425;-54
2021/04/01 09:27:37;;;;;;;;;;;;;;;21.73;33.66;100191.69;4412736;32;19954;-55
2021/04/01 09:30:03;;;;;;;;;;;;;;;21.45;34.13;100187.13;4402446;32;19992;-56
2021/04/01 09:32:29;;;;;;;;;;;;;;;21.63;33.77;100186.31;4408890;32;19969;-56
2021/04/01 09:34:55;;;;;;;;;;;;;;;21.71;33.75;100188.16;4418055;32;19954;-56
2021/04/01 09:37:21;;;;;;;;;;;;;;;21.72;33.75;100189.94;4409402;32;19958;-56
2021/04/01 09:39:47;;;;;;;;;;;;;;;21.70;33.68;100181.09;4403825;32;19957;-55
2021/04/01 09:42:13;;;;;;;;;;;;;;;21.67;33.85;100186.34;4402460;32;20388;-54
2021/04/01 09:44:39;;;;;;;;;;;;;;;21.66;33.99;100179.25;4403092;32;19962;-57
2021/04/01 09:47:05;;;;;;;;;;;;;;;21.72;33.84;100179.31;4400330;32;19987;-54
2021/04/01 09:49:31;;;;;;;;;;;;;;;21.75;33.87;100179.34;4402909;32;19954;-59
2021/04/01 09:51:57;;;;;;;;;;;;;;;21.81;33.79;100176.72;4402652;32;19946;-58
2021/04/01 09:54:22;;;;;;;;;;;;;;;21.53;33.32;100173.03;4402373;32;20064;-57
2021/04/01 09:56:48;;;;;;;;;;;;;;;21.63;33.46;100173.06;4402204;32;19977;-57
2021/04/01 09:59:16;;;;;;;;;;;;;;;21.71;33.37;100172.25;4397710;32;19999;-57
2021/04/01 10:01:43;;;;;;;;;;;;;;;21.81;33.23;100163.47;4402379;32;20193;-57
2021/04/01 10:04:10;;;;;;;;;;;;;;;21.88;33.09;100175.84;4400676;32;19972;-56
2021/04/01 10:06:37;;;;;;;;;;;;;;;21.92;33.10;100170.56;4401743;32;19966;-57
2021/04/01 10:09:03;;;;;;;;;;;;;;;21.83;33.44;100171.41;4392607;32;19965;-56
2021/04/01 10:11:29;;;;;;;;;;;;;;;21.76;33.54;100175.81;4416146;32;20002;-56
2021/04/01 10:13:55;;;;;;;;;;;;;;;21.73;33.64;100174.03;4414941;32;19954;-57
2021/04/01 10:16:22;;;;;;;;;;;;;;;21.76;33.61;100170.50;4416316;32;19981;-56
2021/04/01 10:18:48;;;;;;;;;;;;;;;21.77;33.61;100164.31;4416180;32;19981;-57
2021/04/01 10:21:13;;;;;;;;;;;;;;;21.81;33.59;100163.47;4416202;32;20025;-56
2021/04/01 10:23:39;;;;;;;;;;;;;;;21.78;33.71;100168.72;4416241;32;20017;-57
2021/04/01 10:26:09;;;;;;;;;;;;;;;21.78;33.72;100173.16;4416922;32;20010;-56
2021/04/01 10:31:01;;;;;;;;;;;;;;;21.78;33.76;100173.16;4402063;32;19967;-58
2021/04/01 10:33:27;;;;;;;;;;;;;;;21.80;33.75;100167.00;4403210;32;19953;-53
2021/04/01 10:35:53;;;;;;;;;;;;;;;21.83;33.72;100167.00;4417874;32;19950;-58
2021/04/01 10:38:19;;;;;;;;;;;;;;;21.85;33.71;100159.94;4417214;32;19978;-56
2021/04/01 10:40:45;;;;;;;;;;;;;;;21.84;33.74;100155.50;4417881;32;19949;-57
2021/04/01 10:43:11;;;;;;;;;;;;;;;21.85;33.75;100159.94;4416947;32;19966;-57
2021/04/01 10:45:37;;;;;;;;;;;;;;;21.83;33.80;100159.03;4417565;32;19973;-56
2021/04/01 10:48:03;;;;;;;;;;;;;;;21.92;33.69;100154.66;4416744;32;19976;-56
2021/04/01 10:50:29;;;;;;;;;;;;;;;21.85;33.78;100153.72;4418277;32;19963;-56
2021/04/01 10:52:55;;;;;;;;;;;;;;;21.86;33.80;100151.09;4418246;32;19961;-57
2021/04/01 10:55:20;;;;;;;;;;;;;;;21.86;33.79;100145.78;4416818;32;19985;-56
2021/04/01 10:57:46;;;;;;;;;;;;;;;21.92;33.74;100144.06;4416578;32;20758;-57
2021/04/01 11:00:12;;;;;;;;;;;;;;;21.90;33.75;100142.25;4406097;32;19959;-57
2021/04/01 11:02:38;;;;;;;;;;;;;;;21.94;33.73;100148.47;4402662;32;19965;-57
2021/04/01 11:05:04;;;;;;;;;;;;;;;21.96;33.73;100145.81;4411460;32;19950;-57
2021/04/01 11:07:34;;;;;;;;;;;;;;;21.92;33.76;100144.06;4417173;32;19960;-57
2021/04/01 11:10:00;;;;;;;;;;;;;;;21.99;33.72;100140.50;4417722;32;19950;-58
2021/04/01 11:12:27;;;;;;;;;;;;;;;21.92;33.83;100144.94;4416704;32;20013;-58
2021/04/01 11:14:52;;;;;;;;;;;;;;;21.96;33.80;100148.47;4416875;32;19961;-57
2021/04/01 11:17:18;;;;;;;;;;;;;;;21.93;33.76;100140.53;4416587;32;19959;-57
2021/04/01 11:19:44;;;;;;;;;;;;;;;22.09;33.52;100137.00;4417316;32;20339;-58
2021/04/01 11:22:10;;;;;;;;;;;;;;;22.00;33.68;100136.97;4416593;32;20006;-56
2021/04/01 11:24:36;;;;;;;;;;;;;;;21.97;33.76;100136.97;4417330;32;20005;-57
2021/04/01 11:27:02;;;;;;;;;;;;;;;22.06;33.58;100142.31;4416638;32;19989;-58
2021/04/01 11:29:30;;;;;;;;;;;;;;;22.03;33.65;100135.22;4413613;32;21684;-57
2021/04/01 11:31:56;;;;;;;;;;;;;;;21.99;33.72;100132.56;4401551;32;19966;-58
2021/04/01 11:34:22;;;;;;;;;;;;;;;22.01;33.75;100133.44;4403671;32;20292;-57
2021/04/01 11:36:52;;;;;;;;;;;;;;;22.02;33.73;100129.91;4417336;32;19942;-56
2021/04/01 11:39:34;;;;;;;;;;;;;;;22.02;33.76;100130.81;4417257;32;20252;-58
2021/04/01 11:42:00;;;;;;;;;;;;;;;22.00;33.77;100121.06;4416203;32;19954;-56
2021/04/01 11:44:26;;;;;;;;;;;;;;;22.00;33.83;100110.47;4416766;32;19973;-56
2021/04/01 11:46:52;;;;;;;;;;;;;;;22.10;33.64;100106.06;4416964;32;19999;-57
2021/04/01 11:49:18;;;;;;;;;;;;;;;22.06;33.72;100098.97;4416021;32;19979;-56
2021/04/01 11:51:43;;;;;;;;;;;;;;;22.18;33.57;100099.00;4416189;32;20588;-57
2021/04/01 11:54:11;;;;;;;;;;;;;;;22.15;31.84;100099.00;4416236;32;19973;-56
2021/04/01 11:56:37;;;;;;;;;;;;;;;22.09;30.68;100093.69;4415836;32;20436;-54
2021/04/01 11:59:03;;;;;;;;;;;;;;;22.40;30.81;100089.25;4413484;32;19958;-56
2021/04/01 12:01:32;;;;;;;;;;;;;;;22.68;29.15;100086.62;4415604;32;19995;-58
2021/04/01 12:04:02;;;;;;;;;;;;;;;22.53;29.80;100078.66;4415708;32;19946;-56
2021/04/01 12:06:29;;;;;;;;;;;;;;;22.39;29.00;100073.34;4416371;32;19986;-58
2021/04/01 12:08:55;;;;;;;;;;;;;;;22.44;28.51;100085.72;4415799;32;20007;-56
2021/04/01 12:11:21;;;;;;;;;;;;;;;22.54;28.43;100091.06;4415430;32;19966;-57
2021/04/01 12:13:47;;;;;;;;;;;;;;;22.52;28.01;100084.84;4416195;32;20282;-56
2021/04/01 12:16:13;;;;;;;;;;;;;;;22.82;28.51;100083.91;4415457;32;19953;-56
2021/04/01 12:18:39;;;;;;;;;;;;;;;22.77;28.50;100083.06;4416093;32;19965;-58
2021/04/01 12:21:05;;;;;;;;;;;;;;;22.87;28.18;100079.50;4416483;32;19992;-57
2021/04/01 12:23:31;;;;;;;;;;;;;;;23.01;26.93;100068.81;4416233;32;19958;-57
2021/04/01 12:25:57;;;;;;;;;;;;;;;23.00;28.32;100069.69;4411425;32;20021;-58
2021/04/01 12:28:23;;;;;;;;;;;;;;;22.90;27.57;100067.09;4412889;32;20101;-57
2021/04/01 12:30:51;;;;;;;;;;;;;;;23.07;26.60;100059.06;4415922;32;19954;-55
2021/04/01 12:33:18;;;;;;;;;;;;;;;23.21;26.97;100059.88;4414323;32;19946;-57
2021/04/01 12:35:44;;;;;;;;;;;;;;;23.38;26.75;100059.84;4417806;32;19957;-58
2021/04/01 12:38:13;;;;;;;;;;;;;;;23.54;26.69;100060.66;4417443;32;19968;-57
2021/04/01 12:40:39;;;;;;;;;;;;;;;23.55;26.58;100050.87;4417907;32;19989;-57
2021/04/01 12:43:05;;;;;;;;;;;;;;;23.54;27.14;100044.69;4416653;32;19942;-53
2021/04/01 12:45:33;;;;;;;;;;;;;;;23.94;26.62;100042.66;4416708;32;19965;-58
2021/04/01 12:47:59;;;;;;;;;;;;;;;23.38;26.23;100048.31;4417945;32;19991;-58
2021/04/01 12:50:25;;;;;;;;;;;;;;;22.80;26.81;100045.00;4403122;32;19958;-57
2021/04/01 12:52:53;;;;;;;;;;;;;;;22.71;27.11;100046.78;4402766;32;19946;-58
2021/04/01 12:55:18;;;;;;;;;;;;;;;23.17;26.52;100045.72;4400724;32;20368;-57
2021/04/01 12:57:44;;;;;;;;;;;;;;;23.05;26.83;100039.63;4401582;32;19962;-58
2021/04/01 13:00:11;;;;;;;;;;;;;;;23.31;26.58;100042.16;4394180;32;20476;-58
2021/04/01 13:02:37;;;;;;;;;;;;;;;23.78;26.24;100034.81;4410003;32;19953;-58
2021/04/01 13:05:05;;;;;;;;;;;;;;;23.89;24.94;100039.12;4415914;32;20035;-57
2021/04/01 13:12:44;;;;;;;;;;;;;;;23.58;25.69;100016.31;4404926;32;19977;-57
2021/04/01 13:15:10;;;;;;;;;;;;;;;24.08;24.60;100022.16;4402611;32;19962;-57
2021/04/01 13:17:36;;;;;;;;;;;;;;;24.02;25.92;100030.19;4418347;32;19954;-57
2021/04/01 13:20:01;;;;;;;;;;;;;;;24.28;24.83;100014.00;4418485;32;20013;-58
2021/04/01 13:22:31;;;;;;;;;;;;;;;23.99;24.90;100023.09;4417089;32;19981;-59
2021/04/01 13:25:13;;;;;;;;;;;;;;;23.62;25.65;100019.84;4418989;32;19993;-56
2021/04/01 13:27:39;;;;;;;;;;;;;;;23.71;25.66;100011.78;4406985;32;20047;-58
2021/04/01 13:30:08;;;;;;;;;;;;;;;23.68;25.57;100003.84;4402742;32;19958;-57
2021/04/01 13:32:38;;;;;;;;;;;;;;;23.52;26.07;100017.25;4412607;32;19982;-58
2021/04/01 13:35:08;;;;;;;;;;;;;;;23.71;25.65;99999.41;4416352;32;19980;-58
2021/04/01 13:37:46;;;;;;;;;;;;;;;23.89;25.42;100004.56;4418054;32;19957;-58
2021/04/01 13:40:14;;;;;;;;;;;;;;;23.85;25.14;100001.94;4417984;32;19969;-59
2021/04/01 13:42:40;;;;;;;;;;;;;;;24.00;25.25;100000.03;4417929;32;20393;-58
2021/04/01 13:45:10;;;;;;;;;;;;;;;24.12;24.38;99993.78;4416648;32;20649;-58
2021/04/01 13:47:40;;;;;;;;;;;;;;;23.84;25.00;100000.16;4417118;32;19966;-58
2021/04/01 13:50:06;;;;;;;;;;;;;;;23.82;24.77;99994.00;4403770;32;19966;-58